createdAt,value
2022-10-07T00:01:01.392Z,99.90
2022-10-07T00:03:29.046Z,99.90
2022-10-07T00:06:20.119Z,99.90
2022-10-07T00:08:51.418Z,99.90
2022-10-07T00:11:24.971Z,99.90
2022-10-07T00:13:55.676Z,99.90
2022-10-07T00:16:28.348Z,99.90
2022-10-07T00:18:57.515Z,99.90
2022-10-07T00:21:27.507Z,99.90
2022-10-07T00:23:54.238Z,99.90
2022-10-07T00:26:25.110Z,99.90
2022-10-07T00:28:52.224Z,99.90
2022-10-07T00:31:23.205Z,99.90
2022-10-07T00:33:51.536Z,99.90
2022-10-07T00:36:29.870Z,99.90
2022-10-07T00:39:00.395Z,99.90
2022-10-07T00:41:37.710Z,99.90
2022-10-07T00:44:44.821Z,99.90
2022-10-07T00:47:31.520Z,99.90
2022-10-07T00:50:10.333Z,99.90
2022-10-07T00:52:51.253Z,99.90
2022-10-07T00:55:24.477Z,99.90
2022-10-07T00:57:56.544Z,99.90
2022-10-07T01:00:23.352Z,99.90
2022-10-07T01:02:50.826Z,99.90
2022-10-07T01:05:18.608Z,99.90
2022-10-07T01:07:49.694Z,99.90
2022-10-07T01:10:20.949Z,99.90
2022-10-07T01:13:09.878Z,99.90
2022-10-07T01:16:02.605Z,99.90
2022-10-07T01:18:53.165Z,99.90
2022-10-07T01:23:27.210Z,99.90
2022-10-07T01:26:41.101Z,99.90
2022-10-07T01:29:17.953Z,99.90
2022-10-07T01:31:55.760Z,99.90
2022-10-07T01:34:25.870Z,99.90
2022-10-07T01:36:57.956Z,99.90
2022-10-07T01:39:33.326Z,99.90
2022-10-07T01:42:00.032Z,99.90
2022-10-07T01:44:30.507Z,99.90
2022-10-07T01:46:58.421Z,99.90
2022-10-07T01:49:25.227Z,99.90
2022-10-07T01:54:55.834Z,99.90
2022-10-07T02:00:55.382Z,99.90
2022-10-07T02:05:15.433Z,99.90
2022-10-07T02:08:19.093Z,99.90
2022-10-07T02:11:21.209Z,99.90
2022-10-07T02:14:30.615Z,99.90
2022-10-07T02:17:09.876Z,99.90
2022-10-07T02:19:44.235Z,99.90
2022-10-07T02:22:15.196Z,99.90
2022-10-07T02:24:46.924Z,99.90
2022-10-07T02:27:21.010Z,99.90
2022-10-07T02:29:49.395Z,99.90
2022-10-07T02:32:22.325Z,99.90
2022-10-07T02:35:04.572Z,99.90
2022-10-07T02:37:37.197Z,99.90
2022-10-07T02:40:09.649Z,99.90
2022-10-07T02:42:55.777Z,99.90
2022-10-07T02:45:42.902Z,99.90
2022-10-07T02:48:41.365Z,99.90
2022-10-07T02:51:20.964Z,99.90
2022-10-07T02:53:52.468Z,99.90
2022-10-07T02:56:23.266Z,99.90
2022-10-07T02:58:52.406Z,99.90
2022-10-07T03:01:28.433Z,99.90
2022-10-07T03:03:57.433Z,99.90
2022-10-07T03:06:28.846Z,99.90
2022-10-07T03:08:57.278Z,99.90
2022-10-07T03:11:24.288Z,99.90
2022-10-07T03:13:50.785Z,99.90
2022-10-07T03:16:17.359Z,99.90
2022-10-07T03:18:45.518Z,99.90
2022-10-07T03:21:12.094Z,99.90
2022-10-07T03:23:38.616Z,99.90
2022-10-07T03:26:05.274Z,99.90
2022-10-07T03:28:37.599Z,99.90
2022-10-07T03:31:09.711Z,99.90
2022-10-07T03:33:36.593Z,99.90
2022-10-07T03:36:08.171Z,99.90
2022-10-07T03:38:35.058Z,99.90
2022-10-07T03:41:03.667Z,99.90
2022-10-07T03:43:31.255Z,99.90
2022-10-07T03:46:01.413Z,99.90
2022-10-07T03:48:29.726Z,99.90
2022-10-07T03:50:57.258Z,99.90
2022-10-07T03:53:25.663Z,99.90
2022-10-07T03:55:52.326Z,99.90
2022-10-07T03:58:18.802Z,99.90
2022-10-07T04:00:45.322Z,99.90
2022-10-07T04:03:15.045Z,99.90
2022-10-07T04:05:42.654Z,99.90
2022-10-07T04:08:16.600Z,99.90
2022-10-07T04:10:43.110Z,99.90
2022-10-07T04:13:09.569Z,99.90
2022-10-07T04:15:36.844Z,99.90
2022-10-07T04:18:03.417Z,99.90
2022-10-07T04:20:29.904Z,99.90
2022-10-07T04:22:56.361Z,99.90
2022-10-07T04:25:34.888Z,99.90
2022-10-07T04:28:06.112Z,99.90
2022-10-07T04:30:39.309Z,99.90
2022-10-07T04:33:07.307Z,99.90
2022-10-07T04:35:38.145Z,99.90
2022-10-07T04:38:07.681Z,99.90
2022-10-07T04:40:40.205Z,99.90
2022-10-07T04:43:26.075Z,99.90
2022-10-07T04:46:03.346Z,99.90
2022-10-07T04:48:30.450Z,99.90
2022-10-07T04:51:02.439Z,99.90
2022-10-07T04:53:28.992Z,99.90
2022-10-07T04:55:55.711Z,99.90
2022-10-07T04:58:22.206Z,99.90
2022-10-07T05:00:51.583Z,99.90
2022-10-07T05:03:21.154Z,99.90
2022-10-07T05:05:51.371Z,99.90
2022-10-07T05:08:20.684Z,99.90
2022-10-07T05:10:47.562Z,99.90
2022-10-07T05:13:16.200Z,99.90
2022-10-07T05:15:58.745Z,99.90
2022-10-07T05:18:27.439Z,99.90
2022-10-07T05:20:54.690Z,99.90
2022-10-07T05:23:28.109Z,99.90
2022-10-07T05:26:01.279Z,99.90
2022-10-07T05:28:27.911Z,99.90
2022-10-07T05:31:08.710Z,99.90
2022-10-07T05:33:36.293Z,99.90
2022-10-07T05:36:04.329Z,99.90
2022-10-07T05:38:30.910Z,99.90
2022-10-07T05:40:59.903Z,99.90
2022-10-07T05:43:32.685Z,99.90
2022-10-07T05:46:22.869Z,99.90
2022-10-07T05:48:52.862Z,99.90
2022-10-07T05:51:21.985Z,99.90
2022-10-07T05:53:48.924Z,99.90
2022-10-07T05:56:21.436Z,99.90
2022-10-07T05:58:49.654Z,99.90
2022-10-07T06:01:22.391Z,99.90
2022-10-07T06:03:52.522Z,99.90
2022-10-07T06:06:20.145Z,99.90
2022-10-07T06:08:48.328Z,99.90
2022-10-07T06:11:35.513Z,99.90
2022-10-07T06:14:03.276Z,99.90
2022-10-07T06:16:30.114Z,99.90
2022-10-07T06:18:56.968Z,99.90
2022-10-07T06:21:27.024Z,99.90
2022-10-07T06:23:55.343Z,99.90
2022-10-07T06:26:22.445Z,99.90
2022-10-07T06:28:49.539Z,99.90
2022-10-07T06:31:21.709Z,99.90
2022-10-07T06:33:49.347Z,99.90
2022-10-07T06:36:16.412Z,99.90
2022-10-07T06:38:51.603Z,99.90
2022-10-07T06:41:20.499Z,99.90
2022-10-07T06:43:47.379Z,99.90
2022-10-07T06:46:19.585Z,99.90
2022-10-07T06:48:47.059Z,99.90
2022-10-07T06:51:19.847Z,99.90
2022-10-07T06:53:51.526Z,99.90
2022-10-07T06:56:18.612Z,99.90
2022-10-07T06:58:45.110Z,99.90
2022-10-07T07:01:12.339Z,99.90
2022-10-07T07:03:39.769Z,99.90
2022-10-07T07:06:07.724Z,99.90
2022-10-07T07:08:34.679Z,99.90
2022-10-07T07:11:29.239Z,99.90
2022-10-07T07:13:56.209Z,99.90
2022-10-07T07:16:23.621Z,99.90
2022-10-07T07:18:55.973Z,99.90
2022-10-07T07:21:24.934Z,99.90
2022-10-07T07:23:51.802Z,99.90
2022-10-07T07:26:19.605Z,99.90
2022-10-07T07:29:02.096Z,99.90
2022-10-07T07:31:32.478Z,99.90
2022-10-07T07:34:02.516Z,99.90
2022-10-07T07:36:34.130Z,99.90
2022-10-07T07:39:05.765Z,99.90
2022-10-07T07:41:36.561Z,99.90
2022-10-07T07:44:08.215Z,99.90
2022-10-07T07:46:47.057Z,99.90
2022-10-07T07:49:15.217Z,99.90
2022-10-07T07:51:44.531Z,99.90
2022-10-07T07:54:12.853Z,99.90
2022-10-07T07:56:39.433Z,99.90
2022-10-07T07:59:07.499Z,99.90
2022-10-07T08:01:35.240Z,99.90
2022-10-07T08:04:03.485Z,99.90
2022-10-07T08:06:30.716Z,99.90
2022-10-07T08:08:58.594Z,99.90
2022-10-07T08:11:26.561Z,99.90
2022-10-07T08:13:55.389Z,99.90
2022-10-07T08:16:25.242Z,99.90
2022-10-07T08:18:54.656Z,99.90
2022-10-07T08:21:26.193Z,99.90
2022-10-07T08:23:58.071Z,99.90
2022-10-07T08:26:30.441Z,99.90
2022-10-07T08:28:57.737Z,99.90
2022-10-07T08:31:27.543Z,99.90
2022-10-07T08:33:59.796Z,99.90
2022-10-07T08:36:29.276Z,99.90
2022-10-07T08:38:56.266Z,99.90
2022-10-07T08:42:39.771Z,99.90
2022-10-07T08:45:13.038Z,99.90
2022-10-07T08:47:46.670Z,99.90
2022-10-07T08:50:30.241Z,99.90
2022-10-07T08:53:14.855Z,99.90
2022-10-07T08:56:07.141Z,99.90
2022-10-07T08:59:34.576Z,99.90
2022-10-07T09:05:32.888Z,99.90
2022-10-07T09:08:10.052Z,99.90
2022-10-07T09:10:59.198Z,99.90
2022-10-07T09:13:39.654Z,99.90
2022-10-07T09:16:17.088Z,99.90
2022-10-07T09:18:55.485Z,99.90
2022-10-07T09:21:41.625Z,99.90
2022-10-07T09:24:30.223Z,99.90
2022-10-07T09:27:02.292Z,99.90
2022-10-07T09:29:30.283Z,99.90
2022-10-07T09:31:57.786Z,99.90
2022-10-07T09:34:28.291Z,99.90
2022-10-07T09:37:34.725Z,99.90
2022-10-07T09:41:19.116Z,99.90
2022-10-07T09:44:52.914Z,99.90
2022-10-07T09:47:31.547Z,99.90
2022-10-07T09:49:59.106Z,99.90
2022-10-07T09:52:31.234Z,99.90
2022-10-07T09:55:39.507Z,99.90
2022-10-07T09:58:25.225Z,99.90
2022-10-07T10:00:55.907Z,99.90
2022-10-07T10:03:33.988Z,99.90
2022-10-07T10:06:04.376Z,99.90
2022-10-07T10:08:37.905Z,99.90
2022-10-07T10:11:23.229Z,99.90
2022-10-07T10:13:51.806Z,99.90
2022-10-07T10:16:39.751Z,99.90
2022-10-07T10:19:24.702Z,99.10
2022-10-07T10:21:56.281Z,99.10
2022-10-07T10:24:42.998Z,99.60
2022-10-07T10:30:20.119Z,99.10
2022-10-07T10:39:10.294Z,99.30
2022-10-07T10:42:04.012Z,99.30
2022-10-07T10:45:46.261Z,99.10
2022-10-07T10:48:39.832Z,99.10
2022-10-07T10:54:27.241Z,98.50
2022-10-07T11:03:59.837Z,98.50
2022-10-07T11:06:32.072Z,98.50
2022-10-07T11:09:00.780Z,99.50
2022-10-07T11:11:28.400Z,99.80
2022-10-07T11:14:04.816Z,99.50
2022-10-07T11:16:40.605Z,99.70
2022-10-07T11:19:26.041Z,99.50
2022-10-07T11:21:57.088Z,99.70
2022-10-07T11:24:40.189Z,99.40
2022-10-07T11:27:32.653Z,99.10
2022-10-07T11:30:23.195Z,99.20
2022-10-07T11:32:59.452Z,98.90
2022-10-07T11:35:33.239Z,99.20
2022-10-07T11:38:21.899Z,98.50
2022-10-07T11:40:57.136Z,98.20
2022-10-07T11:44:17.216Z,98.80
2022-10-07T11:46:46.759Z,98.30
2022-10-07T11:51:13.459Z,98.90
2022-10-07T11:53:40.147Z,99.00
2022-10-07T11:56:21.601Z,98.10
2022-10-07T11:59:06.702Z,98.60
2022-10-07T12:01:49.316Z,98.20
2022-10-07T12:04:37.463Z,98.50
2022-10-07T12:09:06.179Z,98.70
2022-10-07T12:11:46.933Z,98.20
2022-10-07T12:14:32.870Z,97.90
2022-10-07T12:17:22.396Z,97.40
2022-10-07T12:21:19.839Z,97.80
2022-10-07T12:23:46.386Z,97.70
2022-10-07T12:28:56.620Z,97.30
2022-10-07T12:31:46.268Z,97.70
2022-10-07T12:34:34.632Z,98.10
2022-10-07T12:37:54.793Z,97.70
2022-10-07T12:40:27.950Z,98.40
2022-10-07T12:43:10.723Z,98.20
2022-10-07T12:45:42.648Z,97.30
2022-10-07T12:48:21.303Z,97.60
2022-10-07T12:50:52.938Z,98.00
2022-10-07T12:53:25.467Z,97.80
2022-10-07T12:55:55.414Z,98.30
2022-10-07T13:00:19.480Z,98.60
2022-10-07T13:03:57.853Z,98.60
2022-10-07T13:07:14.083Z,98.30
2022-10-07T13:10:23.586Z,98.10
2022-10-07T13:13:03.578Z,98.40
2022-10-07T13:15:58.456Z,98.30
2022-10-07T13:19:14.641Z,98.20
2022-10-07T13:22:15.140Z,98.30
2022-10-07T13:24:50.845Z,98.60
2022-10-07T13:27:29.422Z,98.50
2022-10-07T13:29:59.165Z,98.70
2022-10-07T13:32:31.297Z,98.20
2022-10-07T13:34:59.502Z,98.60
2022-10-07T13:37:33.010Z,98.70
2022-10-07T13:40:25.587Z,98.50
2022-10-07T13:43:08.955Z,98.70
2022-10-07T13:45:44.208Z,98.80
2022-10-07T13:48:26.869Z,98.90
2022-10-07T13:50:58.554Z,99.10
2022-10-07T13:53:35.164Z,99.10
2022-10-07T13:56:26.001Z,99.20
2022-10-07T13:58:55.562Z,98.90
2022-10-07T14:01:27.065Z,99.20
2022-10-07T14:07:53.415Z,99.30
2022-10-07T14:10:22.807Z,99.10
2022-10-07T14:13:00.005Z,99.30
2022-10-07T14:15:33.664Z,99.60
2022-10-07T14:18:09.819Z,99.30
2022-10-07T14:20:47.036Z,99.30
2022-10-07T14:23:33.452Z,99.30
2022-10-07T14:26:10.545Z,99.20
2022-10-07T14:28:39.716Z,99.50
2022-10-07T14:31:45.734Z,99.80
2022-10-07T14:34:37.570Z,99.30
2022-10-07T14:37:28.476Z,99.70
2022-10-07T14:39:57.496Z,99.40
2022-10-07T14:42:29.556Z,99.30
2022-10-07T14:44:57.241Z,99.80
2022-10-07T14:47:27.486Z,99.90
2022-10-07T14:49:58.660Z,99.90
2022-10-07T14:52:44.585Z,99.60
2022-10-07T14:55:27.848Z,99.90
2022-10-07T14:57:54.524Z,99.90
2022-10-07T15:00:33.742Z,99.90
2022-10-07T15:03:02.554Z,99.90
2022-10-07T15:05:32.283Z,99.90
2022-10-07T15:07:59.942Z,99.90
2022-10-07T15:10:26.864Z,99.90
2022-10-07T15:12:55.306Z,99.90
2022-10-07T15:15:21.842Z,99.90
2022-10-07T15:17:48.315Z,99.90
2022-10-07T15:20:16.293Z,99.90
2022-10-07T15:22:44.656Z,99.90
2022-10-07T15:25:14.292Z,99.90
2022-10-07T15:27:40.833Z,99.90
2022-10-07T15:30:08.565Z,99.90
2022-10-07T15:32:35.075Z,99.90
2022-10-07T15:35:01.701Z,99.90
2022-10-07T15:37:28.175Z,99.90
2022-10-07T15:39:55.118Z,99.90
2022-10-07T15:42:24.132Z,99.90
2022-10-07T15:44:51.230Z,99.90
2022-10-07T15:47:17.845Z,99.90
2022-10-07T15:49:44.319Z,99.90
2022-10-07T15:52:11.462Z,99.90
2022-10-07T15:54:38.313Z,99.90
2022-10-07T15:57:05.025Z,99.90
2022-10-07T15:59:31.507Z,99.90
2022-10-07T16:01:58.098Z,99.90
2022-10-07T16:04:24.849Z,99.90
2022-10-07T16:06:51.369Z,99.90
2022-10-07T16:09:22.774Z,99.90
2022-10-07T16:11:49.373Z,99.90
2022-10-07T16:14:16.258Z,99.90
2022-10-07T16:16:42.749Z,99.90
2022-10-07T16:19:10.974Z,99.90
2022-10-07T16:21:40.805Z,99.90
2022-10-07T16:24:20.395Z,99.90
2022-10-07T16:26:51.724Z,99.90
2022-10-07T16:29:39.854Z,99.90
2022-10-07T16:32:09.812Z,99.90
2022-10-07T16:34:39.806Z,99.90
2022-10-07T16:37:06.289Z,99.90
2022-10-07T16:39:32.797Z,99.90
2022-10-07T16:41:59.388Z,99.90
2022-10-07T16:44:26.985Z,99.90
2022-10-07T16:46:58.371Z,99.90
2022-10-07T16:49:26.774Z,99.90
2022-10-07T16:51:53.727Z,99.90
2022-10-07T16:54:21.179Z,99.90
2022-10-07T16:56:51.774Z,99.90
2022-10-07T16:59:24.324Z,99.90
2022-10-07T17:01:54.923Z,99.90
2022-10-07T17:04:21.791Z,99.90
2022-10-07T17:06:48.453Z,99.90
2022-10-07T17:09:16.659Z,99.90
2022-10-07T17:11:43.266Z,99.90
2022-10-07T17:14:16.676Z,99.90
2022-10-07T17:16:56.637Z,99.90
2022-10-07T17:19:27.006Z,99.90
2022-10-07T17:21:55.748Z,99.90
2022-10-07T17:24:23.534Z,99.90
2022-10-07T17:26:52.152Z,99.90
2022-10-07T17:29:21.352Z,99.90
2022-10-07T17:31:49.665Z,99.90
2022-10-07T17:34:21.522Z,99.90
2022-10-07T17:36:49.423Z,99.90
2022-10-07T17:39:18.198Z,99.90
2022-10-07T17:41:45.066Z,99.90
2022-10-07T17:44:12.783Z,99.90
2022-10-07T17:46:40.987Z,99.90
2022-10-07T17:49:13.692Z,99.90
2022-10-07T17:51:42.125Z,99.90
2022-10-07T17:54:12.861Z,99.90
2022-10-07T17:56:39.497Z,99.90
2022-10-07T17:59:06.015Z,99.90
2022-10-07T18:01:34.714Z,99.90
2022-10-07T18:04:04.878Z,99.90
2022-10-07T18:06:34.194Z,99.90
2022-10-07T18:09:03.609Z,99.90
2022-10-07T18:11:48.959Z,99.90
2022-10-07T18:14:34.224Z,99.90
2022-10-07T18:17:01.031Z,99.90
2022-10-07T18:19:28.711Z,99.90
2022-10-07T18:21:55.704Z,99.90
2022-10-07T18:24:26.405Z,99.90
2022-10-07T18:26:54.323Z,99.90
2022-10-07T18:29:20.869Z,99.90
2022-10-07T18:31:47.462Z,99.90
2022-10-07T18:34:14.031Z,99.90
2022-10-07T18:36:40.491Z,99.90
2022-10-07T18:39:11.558Z,99.90
2022-10-07T18:41:38.442Z,99.90
2022-10-07T18:44:05.377Z,99.90
2022-10-07T18:46:32.535Z,99.90
2022-10-07T18:48:58.987Z,99.90
2022-10-07T18:51:25.474Z,99.90
2022-10-07T18:53:51.952Z,99.90
2022-10-07T18:56:22.820Z,99.90
2022-10-07T18:58:52.124Z,99.90
2022-10-07T19:01:22.632Z,99.90
2022-10-07T19:03:59.572Z,99.90
2022-10-07T19:06:27.437Z,99.90
2022-10-07T19:09:00.520Z,99.90
2022-10-07T19:11:29.582Z,99.90
2022-10-07T19:13:58.357Z,99.90
2022-10-07T19:16:40.760Z,99.90
2022-10-07T19:19:17.216Z,99.90
2022-10-07T19:21:50.735Z,99.90
2022-10-07T19:24:18.224Z,99.90
2022-10-07T19:26:49.138Z,99.90
2022-10-07T19:29:17.137Z,99.90
2022-10-07T19:31:47.852Z,99.90
2022-10-07T19:34:18.565Z,99.90
2022-10-07T19:36:46.372Z,99.90
2022-10-07T19:39:16.611Z,99.90
2022-10-07T19:41:43.777Z,99.90
2022-10-07T19:44:11.864Z,99.90
2022-10-07T19:46:38.376Z,99.90
2022-10-07T19:49:06.407Z,99.90
2022-10-07T19:51:33.849Z,99.90
2022-10-07T19:54:05.470Z,99.90
2022-10-07T19:56:34.848Z,99.90
2022-10-07T19:59:05.372Z,99.90
2022-10-07T20:01:43.748Z,99.90
2022-10-07T20:04:18.110Z,99.90
2022-10-07T20:06:44.710Z,99.90
2022-10-07T20:09:15.451Z,99.90
2022-10-07T20:11:42.399Z,99.90
2022-10-07T20:14:09.332Z,99.90
2022-10-07T20:16:37.421Z,99.90
2022-10-07T20:19:14.642Z,99.90
2022-10-07T20:21:41.393Z,99.90
2022-10-07T20:24:09.131Z,99.90
2022-10-07T20:26:37.945Z,99.90
2022-10-07T20:29:07.142Z,99.90
2022-10-07T20:31:37.968Z,99.90
2022-10-07T20:34:06.687Z,99.90
2022-10-07T20:36:36.821Z,99.90
2022-10-07T20:39:35.192Z,99.90
2022-10-07T20:42:24.819Z,99.90
2022-10-07T20:44:52.890Z,99.90
2022-10-07T20:47:21.219Z,99.90
2022-10-07T20:49:49.973Z,99.90
2022-10-07T20:52:23.402Z,99.90
2022-10-07T20:54:51.630Z,99.90
2022-10-07T20:57:25.217Z,99.90
2022-10-07T20:59:51.772Z,99.90
2022-10-07T21:02:21.387Z,99.90
2022-10-07T21:04:47.962Z,99.90
2022-10-07T21:07:17.004Z,99.90
2022-10-07T21:09:43.945Z,99.90
2022-10-07T21:12:14.632Z,99.90
2022-10-07T21:14:47.056Z,99.90
2022-10-07T21:17:14.625Z,99.90
2022-10-07T21:19:41.126Z,99.90
2022-10-07T21:22:08.212Z,99.90
2022-10-07T21:24:35.039Z,99.90
2022-10-07T21:27:06.563Z,99.90
2022-10-07T21:29:37.489Z,99.90
2022-10-07T21:32:07.592Z,99.90
2022-10-07T21:34:34.100Z,99.90
2022-10-07T21:37:00.595Z,99.90
2022-10-07T21:39:27.278Z,99.90
2022-10-07T21:41:54.114Z,99.90
2022-10-07T21:44:20.909Z,99.90
2022-10-07T21:46:47.385Z,99.90
2022-10-07T21:49:15.074Z,99.90
2022-10-07T21:51:42.749Z,99.90
2022-10-07T21:54:15.604Z,99.90
2022-10-07T21:56:45.159Z,99.90
2022-10-07T21:59:12.196Z,99.90
2022-10-07T22:01:38.866Z,99.90
2022-10-07T22:04:06.533Z,99.90
2022-10-07T22:06:51.629Z,99.90
2022-10-07T22:09:20.596Z,99.90
2022-10-07T22:11:47.994Z,99.90
2022-10-07T22:14:14.485Z,99.90
2022-10-07T22:16:41.520Z,99.90
2022-10-07T22:19:08.498Z,99.90
2022-10-07T22:21:39.213Z,99.90
2022-10-07T22:24:07.373Z,99.90
2022-10-07T22:26:41.358Z,99.90
2022-10-07T22:29:10.386Z,99.90
2022-10-07T22:31:37.625Z,99.90
2022-10-07T22:34:05.417Z,99.90
2022-10-07T22:36:31.922Z,99.90
2022-10-07T22:38:59.102Z,99.90
2022-10-07T22:41:26.705Z,99.90
2022-10-07T22:43:53.542Z,99.90
2022-10-07T22:46:25.518Z,99.90
2022-10-07T22:48:57.155Z,99.90
2022-10-07T22:51:27.593Z,99.90
2022-10-07T22:53:55.826Z,99.90
2022-10-07T22:56:25.467Z,99.90
2022-10-07T22:58:59.015Z,99.90
2022-10-07T23:01:30.442Z,99.90
2022-10-07T23:04:02.357Z,99.90
2022-10-07T23:06:32.281Z,99.90
2022-10-07T23:08:59.832Z,99.90
2022-10-07T23:11:28.366Z,99.90
2022-10-07T23:13:55.467Z,99.90
2022-10-07T23:16:26.384Z,99.90
2022-10-07T23:18:53.016Z,99.90
2022-10-07T23:21:28.633Z,99.90
2022-10-07T23:24:06.908Z,99.90
2022-10-07T23:26:35.650Z,99.90
2022-10-07T23:29:02.904Z,99.90
2022-10-07T23:31:32.254Z,99.90
2022-10-07T23:34:01.168Z,99.90
2022-10-07T23:36:28.476Z,99.90
2022-10-07T23:38:55.226Z,99.90
2022-10-07T23:41:25.021Z,99.90
2022-10-07T23:43:56.923Z,99.90
2022-10-07T23:46:26.531Z,99.90
2022-10-07T23:48:54.143Z,99.90
2022-10-07T23:51:24.290Z,99.90
2022-10-07T23:53:50.825Z,99.90
2022-10-07T23:56:20.108Z,99.90
2022-10-07T23:58:46.690Z,99.90
